createdAt,value
2023-04-12T00:00:50.715Z,99798.44
2023-04-12T00:03:20.682Z,99791.47
2023-04-12T00:05:48.301Z,99794.59
2023-04-12T00:08:16.552Z,99796.25
2023-04-12T00:10:43.394Z,99790.47
2023-04-12T00:13:10.066Z,99784.63
2023-04-12T00:15:36.893Z,99776.50
2023-04-12T00:18:03.736Z,99767.81
2023-04-12T00:20:30.521Z,99761.06
2023-04-12T00:22:57.465Z,99758.03
2023-04-12T00:25:24.359Z,99758.38
2023-04-12T00:27:51.402Z,99762.84
2023-04-12T00:30:18.074Z,99757.25
2023-04-12T00:32:45.245Z,99763.94
2023-04-12T00:35:11.917Z,99755.03
2023-04-12T00:37:39.201Z,99749.16
2023-04-12T00:40:08.210Z,99745.53
2023-04-12T00:42:36.892Z,99732.16
2023-04-12T00:45:04.703Z,99719.56
2023-04-12T00:47:32.207Z,99730.44
2023-04-12T00:49:59.129Z,99724.31
2023-04-12T00:52:28.058Z,99727.09
2023-04-12T00:54:54.787Z,99724.25
2023-04-12T00:57:22.280Z,99719.72
2023-04-12T00:59:49.107Z,99720.34
2023-04-12T01:02:17.344Z,99714.47
2023-04-12T01:04:45.745Z,99705.50
2023-04-12T01:07:54.038Z,99700.19
2023-04-12T01:10:33.215Z,99692.44
2023-04-12T01:13:30.032Z,99681.84
2023-04-12T01:16:12.795Z,99680.72
2023-04-12T01:18:45.520Z,99665.13
2023-04-12T01:21:20.709Z,99662.03
2023-04-12T01:24:00.684Z,99657.56
2023-04-12T01:26:37.042Z,99652.81
2023-04-12T01:29:10.804Z,99646.09
2023-04-12T01:31:41.252Z,99648.56
2023-04-12T01:34:11.448Z,99638.75
2023-04-12T01:36:39.767Z,99637.00
2023-04-12T01:39:07.810Z,99622.84
2023-04-12T01:41:39.805Z,99609.19
2023-04-12T01:44:06.572Z,99605.88
2023-04-12T01:46:34.388Z,99608.63
2023-04-12T01:49:01.513Z,99592.41
2023-04-12T01:51:55.464Z,99607.41
2023-04-12T01:54:27.394Z,99598.22
2023-04-12T01:56:58.256Z,99595.78
2023-04-12T01:59:40.568Z,99581.53
2023-04-12T02:02:08.950Z,99585.50
2023-04-12T02:04:36.305Z,99569.03
2023-04-12T02:07:03.792Z,99560.38
2023-04-12T02:09:30.604Z,99560.97
2023-04-12T02:11:57.734Z,99557.84
2023-04-12T02:14:24.240Z,99552.34
2023-04-12T02:16:54.779Z,99547.31
2023-04-12T02:19:22.004Z,99534.75
2023-04-12T02:21:48.675Z,99531.63
2023-04-12T02:24:15.931Z,99529.97
2023-04-12T02:26:44.605Z,99513.19
2023-04-12T02:29:12.224Z,99505.44
2023-04-12T02:31:39.285Z,99503.78
2023-04-12T02:34:09.071Z,99497.09
2023-04-12T02:36:38.300Z,99485.63
2023-04-12T02:39:05.371Z,99477.56
2023-04-12T02:41:34.594Z,99473.66
2023-04-12T02:44:01.528Z,99473.06
2023-04-12T02:46:28.522Z,99461.84
2023-04-12T02:48:58.038Z,99466.28
2023-04-12T02:51:32.493Z,99454.84
2023-04-12T02:54:00.354Z,99444.00
2023-04-12T02:56:35.484Z,99442.13
2023-04-12T02:59:09.618Z,99427.94
2023-04-12T03:01:56.434Z,99420.47
2023-04-12T03:04:30.466Z,99417.44
2023-04-12T03:06:59.552Z,99415.19
2023-04-12T03:09:34.890Z,99414.63
2023-04-12T03:12:02.838Z,99400.44
2023-04-12T03:14:33.677Z,99382.72
2023-04-12T03:17:00.393Z,99377.44
2023-04-12T03:19:28.824Z,99373.28
2023-04-12T03:21:55.460Z,99368.34
2023-04-12T03:24:22.286Z,99363.97
2023-04-12T03:26:50.154Z,99351.06
2023-04-12T03:29:22.137Z,99349.41
2023-04-12T03:31:50.818Z,99343.84
2023-04-12T03:34:17.807Z,99334.66
2023-04-12T03:36:49.018Z,99336.59
2023-04-12T03:39:24.450Z,99327.22
2023-04-12T03:41:53.117Z,99318.50
2023-04-12T03:44:26.023Z,99315.41
2023-04-12T03:46:55.002Z,99303.72
2023-04-12T03:49:22.426Z,99305.66
2023-04-12T03:51:50.715Z,99306.50
2023-04-12T03:54:17.289Z,99290.47
2023-04-12T03:56:54.987Z,99279.81
2023-04-12T03:59:27.012Z,99282.06
2023-04-12T04:01:55.757Z,99275.97
2023-04-12T04:04:24.142Z,99276.03
2023-04-12T04:06:54.787Z,99273.19
2023-04-12T04:09:21.677Z,99262.41
2023-04-12T04:11:49.933Z,99259.84
2023-04-12T04:14:17.032Z,99249.25
2023-04-12T04:16:43.713Z,99239.78
2023-04-12T04:19:10.391Z,99236.19
2023-04-12T04:21:37.661Z,99228.66
2023-04-12T04:24:04.408Z,99232.56
2023-04-12T04:26:38.177Z,99225.91
2023-04-12T04:29:11.898Z,99225.06
2023-04-12T04:31:39.399Z,99211.75
2023-04-12T04:34:07.446Z,99212.28
2023-04-12T04:36:41.554Z,99208.38
2023-04-12T04:39:09.040Z,99197.84
2023-04-12T04:41:41.154Z,99201.47
2023-04-12T04:44:18.182Z,99187.50
2023-04-12T04:46:54.678Z,99193.91
2023-04-12T04:49:21.308Z,99195.59
2023-04-12T04:51:48.432Z,99183.06
2023-04-12T04:54:16.603Z,99196.19
2023-04-12T04:56:44.005Z,99182.53
2023-04-12T04:59:13.088Z,99171.38
2023-04-12T05:01:41.152Z,99171.97
2023-04-12T05:04:08.133Z,99163.06
2023-04-12T05:06:34.816Z,99159.69
2023-04-12T05:09:02.994Z,99158.56
2023-04-12T05:11:49.641Z,99146.09
2023-04-12T05:14:16.206Z,99146.34
2023-04-12T05:16:42.902Z,99147.47
2023-04-12T05:19:09.511Z,99145.22
2023-04-12T05:21:36.091Z,99147.97
2023-04-12T05:24:02.720Z,99142.59
2023-04-12T05:26:34.086Z,99144.06
2023-04-12T05:29:02.990Z,99143.31
2023-04-12T05:31:29.616Z,99144.75
2023-04-12T05:33:58.965Z,99139.66
2023-04-12T05:36:31.923Z,99135.06
2023-04-12T05:38:58.962Z,99131.69
2023-04-12T05:41:25.748Z,99121.25
2023-04-12T05:43:52.282Z,99120.56
2023-04-12T05:46:19.069Z,99118.63
2023-04-12T05:48:50.084Z,99110.44
2023-04-12T05:51:19.449Z,99112.63
2023-04-12T05:53:47.967Z,99096.47
2023-04-12T05:56:14.509Z,99097.56
2023-04-12T05:58:43.332Z,99097.63
2023-04-12T06:01:10.696Z,99093.28
2023-04-12T06:03:41.666Z,99081.47
2023-04-12T06:06:10.092Z,99081.38
2023-04-12T06:08:37.964Z,99076.34
2023-04-12T06:11:05.524Z,99063.75
2023-04-12T06:13:32.346Z,99064.28
2023-04-12T06:15:59.111Z,99064.63
2023-04-12T06:18:26.065Z,99065.75
2023-04-12T06:20:52.747Z,99063.75
2023-04-12T06:23:19.511Z,99055.22
2023-04-12T06:25:47.725Z,99059.34
2023-04-12T06:28:14.424Z,99048.78
2023-04-12T06:30:45.490Z,99043.69
2023-04-12T06:33:12.473Z,99037.69
2023-04-12T06:35:40.278Z,99028.22
2023-04-12T06:38:07.407Z,99034.00
2023-04-12T06:40:34.207Z,99027.09
2023-04-12T06:43:01.033Z,99028.31
2023-04-12T06:45:28.111Z,99019.31
2023-04-12T06:47:56.885Z,99016.66
2023-04-12T06:50:23.581Z,99011.66
2023-04-12T06:52:50.189Z,99005.28
2023-04-12T06:55:16.852Z,98989.72
2023-04-12T06:57:47.486Z,98993.81
2023-04-12T07:00:14.446Z,98988.22
2023-04-12T07:02:41.196Z,98988.25
2023-04-12T07:05:08.218Z,98980.03
2023-04-12T07:07:34.887Z,98968.94
2023-04-12T07:10:03.254Z,98968.34
2023-04-12T07:12:29.956Z,98965.59
2023-04-12T07:14:56.868Z,98960.09
2023-04-12T07:17:26.799Z,98964.53
2023-04-12T07:19:56.784Z,98957.31
2023-04-12T07:22:23.289Z,98958.66
2023-04-12T07:24:50.680Z,98949.81
2023-04-12T07:27:17.326Z,98949.53
2023-04-12T07:29:44.156Z,98946.47
2023-04-12T07:32:11.021Z,98940.34
2023-04-12T07:34:39.377Z,98941.19
2023-04-12T07:37:06.259Z,98935.91
2023-04-12T07:39:34.858Z,98935.09
2023-04-12T07:42:01.832Z,98930.63
2023-04-12T07:44:31.014Z,98924.81
2023-04-12T07:46:57.742Z,98926.22
2023-04-12T07:49:24.396Z,98920.66
2023-04-12T07:51:51.150Z,98915.69
2023-04-12T07:54:17.911Z,98915.38
2023-04-12T07:56:58.221Z,98906.19
2023-04-12T07:59:24.914Z,98907.84
2023-04-12T08:01:51.521Z,98906.75
2023-04-12T08:04:18.327Z,98899.25
2023-04-12T08:06:44.992Z,98897.34
2023-04-12T08:09:11.567Z,98904.25
2023-04-12T08:11:38.124Z,98904.56
2023-04-12T08:14:04.721Z,98905.09
2023-04-12T08:16:32.429Z,98908.16
2023-04-12T08:18:59.026Z,98906.75
2023-04-12T08:21:25.876Z,98915.94
2023-04-12T08:23:52.499Z,98911.78
2023-04-12T08:26:19.001Z,98916.50
2023-04-12T08:28:45.717Z,98916.75
2023-04-12T08:31:13.119Z,98913.41
2023-04-12T08:33:39.815Z,98910.94
2023-04-12T08:36:07.790Z,98899.19
2023-04-12T08:38:44.794Z,98894.19
2023-04-12T08:41:12.946Z,98883.34
2023-04-12T08:43:43.676Z,98882.19
2023-04-12T08:46:10.642Z,98875.31
2023-04-12T08:48:38.241Z,98864.47
2023-04-12T08:51:06.032Z,98874.34
2023-04-12T08:53:33.484Z,98873.75
2023-04-12T08:56:00.591Z,98876.91
2023-04-12T08:58:27.394Z,98869.84
2023-04-12T09:00:54.604Z,98869.69
2023-04-12T09:03:21.893Z,98874.84
2023-04-12T09:05:48.666Z,98869.91
2023-04-12T09:08:16.987Z,98878.72
2023-04-12T09:10:43.922Z,98869.38
2023-04-12T09:13:10.583Z,98871.06
2023-04-12T09:15:50.809Z,98863.56
2023-04-12T09:18:18.606Z,98857.94
2023-04-12T09:20:45.201Z,98863.78
2023-04-12T09:23:26.327Z,98865.41
2023-04-12T09:25:53.564Z,98867.56
2023-04-12T09:28:28.546Z,98855.88
2023-04-12T09:30:57.510Z,98870.94
2023-04-12T09:33:32.870Z,98875.41
2023-04-12T09:36:09.307Z,98870.34
2023-04-12T09:38:36.933Z,98871.75
2023-04-12T09:41:26.140Z,98867.31
2023-04-12T09:43:53.672Z,98865.22
2023-04-12T09:46:20.321Z,98863.41
2023-04-12T09:48:55.041Z,98858.25
2023-04-12T09:51:31.077Z,98865.59
2023-04-12T09:54:06.351Z,98852.66
2023-04-12T09:56:37.718Z,98851.03
2023-04-12T09:59:06.016Z,98856.78
2023-04-12T10:01:36.712Z,98853.28
2023-04-12T10:04:05.588Z,98863.44
2023-04-12T10:06:33.542Z,98857.66
2023-04-12T10:09:04.291Z,98855.19
2023-04-12T10:11:32.231Z,98859.47
2023-04-12T10:13:59.612Z,98852.56
2023-04-12T10:16:27.455Z,98854.53
2023-04-12T10:18:55.066Z,98848.84
2023-04-12T10:21:22.222Z,98838.28
2023-04-12T10:23:48.985Z,98844.59
2023-04-12T10:26:16.718Z,98844.69
2023-04-12T10:28:47.696Z,98845.41
2023-04-12T10:31:28.099Z,98841.94
2023-04-12T10:33:55.553Z,98838.03
2023-04-12T10:36:57.037Z,98834.78
2023-04-12T10:39:47.110Z,98832.75
2023-04-12T10:42:22.874Z,98830.81
2023-04-12T10:45:10.683Z,98833.31
2023-04-12T10:47:49.464Z,98833.25
2023-04-12T10:50:27.612Z,98830.97
2023-04-12T10:53:22.894Z,98828.38
2023-04-12T10:55:49.765Z,98823.66
2023-04-12T10:58:48.520Z,98826.72
2023-04-12T11:01:18.810Z,98837.81
2023-04-12T11:04:15.297Z,98840.59
2023-04-12T11:06:53.839Z,98834.41
2023-04-12T11:09:43.308Z,98835.63
2023-04-12T11:12:16.171Z,98839.13
2023-04-12T11:14:50.929Z,98853.16
2023-04-12T11:17:23.151Z,98857.72
2023-04-12T11:19:56.353Z,98869.84
2023-04-12T11:22:26.090Z,98872.88
2023-04-12T11:24:55.669Z,98880.59
2023-04-12T11:27:24.215Z,98870.06
2023-04-12T11:29:54.524Z,98859.56
2023-04-12T11:32:23.573Z,98864.81
2023-04-12T11:34:50.451Z,98866.22
2023-04-12T11:37:19.263Z,98856.22
2023-04-12T11:39:47.043Z,98850.31
2023-04-12T11:42:23.767Z,98857.81
2023-04-12T11:44:58.799Z,98850.47
2023-04-12T11:47:27.816Z,98855.94
2023-04-12T11:49:57.353Z,98854.16
2023-04-12T11:52:33.855Z,98870.13
2023-04-12T11:55:06.534Z,98874.25
2023-04-12T11:57:34.232Z,98864.84
2023-04-12T12:00:01.060Z,98872.28
2023-04-12T12:02:32.348Z,98871.88
2023-04-12T12:05:01.979Z,98874.97
2023-04-12T12:07:29.011Z,98874.72
2023-04-12T12:09:56.379Z,98874.69
2023-04-12T12:12:23.808Z,98873.88
2023-04-12T12:14:50.593Z,98873.00
2023-04-12T12:17:17.488Z,98865.13
2023-04-12T12:19:45.589Z,98876.22
2023-04-12T12:22:22.396Z,98873.38
2023-04-12T12:24:56.596Z,98869.84
2023-04-12T12:27:30.265Z,98862.03
2023-04-12T12:30:01.590Z,98869.41
2023-04-12T12:32:33.409Z,98862.66
2023-04-12T12:35:00.843Z,98857.00
2023-04-12T12:37:28.856Z,98849.53
2023-04-12T12:40:13.371Z,98845.03
2023-04-12T12:42:56.692Z,98843.69
2023-04-12T12:45:25.804Z,98833.03
2023-04-12T12:47:54.774Z,98818.53
2023-04-12T12:50:36.109Z,98840.31
2023-04-12T12:53:05.529Z,98848.03
2023-04-12T12:55:32.615Z,98840.63
2023-04-12T13:00:29.522Z,98838.56
2023-04-12T13:02:56.559Z,98848.66
2023-04-12T13:05:23.723Z,98842.38
2023-04-12T13:07:50.430Z,98840.72
2023-04-12T13:10:17.202Z,98833.22
2023-04-12T13:12:43.979Z,98838.22
2023-04-12T13:17:46.813Z,98834.47
2023-04-12T13:20:13.621Z,98827.66
2023-04-12T13:22:40.364Z,98831.00
2023-04-12T13:25:07.520Z,98833.81
2023-04-12T13:27:34.097Z,98822.88
2023-04-12T13:30:01.002Z,98819.25
2023-04-12T13:32:27.634Z,98811.00
2023-04-12T13:34:54.474Z,98808.03
2023-04-12T13:37:21.286Z,98807.06
2023-04-12T13:39:48.074Z,98813.38
2023-04-12T13:42:14.828Z,98803.59
2023-04-12T13:44:41.490Z,98800.38
2023-04-12T13:47:08.230Z,98808.31
2023-04-12T13:49:34.845Z,98805.44
2023-04-12T13:52:02.361Z,98815.28
2023-04-12T13:54:30.649Z,98810.38
2023-04-12T13:56:58.646Z,98815.38
2023-04-12T13:59:26.830Z,98814.06
2023-04-12T14:01:54.680Z,98821.38
2023-04-12T14:04:22.624Z,98837.63
2023-04-12T14:06:49.780Z,98864.28
2023-04-12T14:09:30.602Z,98871.63
2023-04-12T14:11:58.708Z,98879.75
2023-04-12T14:14:27.402Z,98884.97
2023-04-12T14:16:57.956Z,98894.94
2023-04-12T14:19:25.546Z,98883.59
2023-04-12T14:21:53.504Z,98890.00
2023-04-12T14:24:21.903Z,98890.53
2023-04-12T14:26:53.913Z,98901.66
2023-04-12T14:29:21.935Z,98910.41
2023-04-12T14:31:48.719Z,98920.38
2023-04-12T14:34:15.523Z,98925.66
2023-04-12T14:36:42.317Z,98921.78
2023-04-12T14:39:11.271Z,98918.97
2023-04-12T14:41:40.595Z,98930.38
2023-04-12T14:44:07.206Z,98927.06
2023-04-12T14:46:33.902Z,98922.59
2023-04-12T14:49:01.046Z,98926.78
2023-04-12T14:51:28.298Z,98927.06
2023-04-12T14:53:54.909Z,98927.81
2023-04-12T14:56:25.031Z,98938.38
2023-04-12T14:58:54.650Z,98937.84
2023-04-12T15:01:23.445Z,98939.50
2023-04-12T15:03:52.504Z,98953.44
2023-04-12T15:06:20.786Z,98945.09
2023-04-12T15:08:49.376Z,98933.16
2023-04-12T15:11:19.172Z,98935.53
2023-04-12T15:13:45.820Z,98933.72
2023-04-12T15:16:12.494Z,98934.28
2023-04-12T15:18:41.485Z,98937.69
2023-04-12T15:21:09.408Z,98939.09
2023-04-12T15:23:36.877Z,98941.66
2023-04-12T15:26:06.544Z,98947.78
2023-04-12T15:28:33.723Z,98958.78
2023-04-12T15:31:01.427Z,98958.78
2023-04-12T15:33:30.700Z,98958.28
2023-04-12T15:36:00.359Z,98970.28
2023-04-12T15:38:27.559Z,98980.38
2023-04-12T15:40:59.875Z,98987.34
2023-04-12T15:43:27.562Z,98993.41
2023-04-12T15:45:54.908Z,98996.13
2023-04-12T15:48:23.461Z,98993.13
2023-04-12T15:50:55.762Z,98988.09
2023-04-12T15:53:25.483Z,98985.06
2023-04-12T15:55:55.561Z,98981.13
2023-04-12T15:58:23.972Z,98966.25
2023-04-12T16:00:52.815Z,98967.09
2023-04-12T16:03:23.090Z,98971.78
2023-04-12T16:05:53.555Z,98980.13
2023-04-12T16:08:21.999Z,98977.47
2023-04-12T16:10:50.177Z,98980.72
2023-04-12T16:13:17.011Z,98980.59
2023-04-12T16:15:44.054Z,98987.53
2023-04-12T16:18:11.161Z,98985.31
2023-04-12T16:20:37.991Z,98986.47
2023-04-12T16:23:05.202Z,98986.53
2023-04-12T16:25:32.136Z,98995.47
2023-04-12T16:28:02.283Z,98998.28
2023-04-12T16:30:32.675Z,99006.66
2023-04-12T16:32:59.787Z,99006.25
2023-04-12T16:35:27.197Z,99005.84
2023-04-12T16:37:55.564Z,99019.75
2023-04-12T16:40:24.674Z,99020.63
2023-04-12T16:42:52.393Z,99023.13
2023-04-12T16:45:20.855Z,99029.31
2023-04-12T16:47:48.222Z,99029.03
2023-04-12T16:50:15.376Z,99037.09
2023-04-12T16:52:42.425Z,99056.47
2023-04-12T16:55:12.913Z,99061.59
2023-04-12T16:57:41.643Z,99039.38
2023-04-12T17:00:28.731Z,99042.63
2023-04-12T17:02:55.709Z,99056.63
2023-04-12T17:05:23.121Z,99044.50
2023-04-12T17:07:52.905Z,99035.34
2023-04-12T17:10:21.449Z,99033.13
2023-04-12T17:12:51.703Z,99035.63
2023-04-12T17:15:25.149Z,99024.84
2023-04-12T17:17:53.661Z,99012.06
2023-04-12T17:20:22.981Z,98987.41
2023-04-12T17:22:50.137Z,98988.72
2023-04-12T17:25:18.731Z,99008.44
2023-04-12T17:27:47.246Z,99003.69
2023-04-12T17:30:15.910Z,99006.34
2023-04-12T17:32:42.486Z,99005.25
2023-04-12T17:35:09.952Z,98999.66
2023-04-12T17:37:37.162Z,98999.00
2023-04-12T17:40:06.859Z,98995.69
2023-04-12T17:42:33.506Z,99008.22
2023-04-12T17:45:00.131Z,99002.94
2023-04-12T17:47:26.767Z,98998.06
2023-04-12T17:49:53.357Z,98998.84
2023-04-12T17:52:19.942Z,98997.22
2023-04-12T17:54:46.985Z,99001.50
2023-04-12T17:57:13.567Z,98991.84
2023-04-12T17:59:40.227Z,98986.19
2023-04-12T18:02:07.066Z,98990.31
2023-04-12T18:04:33.871Z,98999.69
2023-04-12T18:07:01.236Z,98993.81
2023-04-12T18:09:28.439Z,98996.53
2023-04-12T18:11:55.150Z,98999.75
2023-04-12T18:14:22.223Z,99002.31
2023-04-12T18:16:48.840Z,98995.38
2023-04-12T18:19:18.787Z,98993.47
2023-04-12T18:21:49.216Z,98995.56
2023-04-12T18:24:18.735Z,98983.72
2023-04-12T18:26:45.975Z,98993.41
2023-04-12T18:29:15.874Z,98996.75
2023-04-12T18:31:42.570Z,98993.47
2023-04-12T18:34:09.220Z,98993.66
2023-04-12T18:36:36.991Z,98994.91
2023-04-12T18:39:07.882Z,99008.38
2023-04-12T18:41:34.420Z,99008.66
2023-04-12T18:44:01.274Z,99007.25
2023-04-12T18:46:29.427Z,99014.47
2023-04-12T18:48:56.764Z,99011.13
2023-04-12T18:51:24.183Z,99017.25
2023-04-12T18:53:51.294Z,99026.97
2023-04-12T18:56:23.067Z,99032.84
2023-04-12T18:58:55.581Z,99033.41
2023-04-12T19:01:23.568Z,99044.84
2023-04-12T19:03:50.449Z,99037.91
2023-04-12T19:06:17.994Z,99035.69
2023-04-12T19:08:44.574Z,99027.88
2023-04-12T19:11:11.171Z,99024.56
2023-04-12T19:13:38.291Z,99032.63
2023-04-12T19:16:08.560Z,99024.59
2023-04-12T19:18:35.389Z,99039.00
2023-04-12T19:21:02.884Z,99024.28
2023-04-12T19:23:30.538Z,99029.03
2023-04-12T19:25:59.685Z,99027.63
2023-04-12T19:28:27.155Z,99019.84
2023-04-12T19:30:54.147Z,99020.13
2023-04-12T19:33:20.991Z,99026.53
2023-04-12T19:35:47.588Z,99019.28
2023-04-12T19:38:15.621Z,99023.75
2023-04-12T19:40:42.911Z,99016.78
2023-04-12T19:43:09.656Z,99021.25
2023-04-12T19:45:36.234Z,99026.81
2023-04-12T19:48:03.025Z,99027.59
2023-04-12T19:50:30.917Z,99025.13
2023-04-12T19:52:57.604Z,99023.19
2023-04-12T19:55:25.080Z,99025.41
2023-04-12T19:57:51.972Z,99026.25
2023-04-12T20:00:23.102Z,99010.13
2023-04-12T20:02:51.019Z,99015.69
2023-04-12T20:05:17.864Z,99005.97
2023-04-12T20:07:44.449Z,99013.41
2023-04-12T20:10:12.360Z,99004.56
2023-04-12T20:12:39.444Z,99003.16
2023-04-12T20:15:11.640Z,99000.91
2023-04-12T20:17:44.550Z,99004.25
2023-04-12T20:20:13.908Z,99006.53
2023-04-12T20:22:42.246Z,99004.53
2023-04-12T20:25:13.040Z,99007.88
2023-04-12T20:27:39.649Z,99014.00
2023-04-12T20:30:08.626Z,99009.84
2023-04-12T20:32:35.862Z,99003.47
2023-04-12T20:35:03.937Z,99004.25
2023-04-12T20:37:30.624Z,99000.69
2023-04-12T20:39:58.558Z,98998.19
2023-04-12T20:42:25.570Z,98995.13
2023-04-12T20:44:52.495Z,98989.28
2023-04-12T20:47:19.705Z,98997.34
2023-04-12T20:49:46.242Z,98998.44
2023-04-12T20:52:16.626Z,99008.44
2023-04-12T20:54:45.629Z,98979.00
2023-04-12T20:57:13.897Z,98991.19
2023-04-12T20:59:40.586Z,98966.47
2023-04-12T21:02:07.306Z,98976.72
2023-04-12T21:04:36.340Z,98973.16
2023-04-12T21:07:03.287Z,98978.44
2023-04-12T21:09:30.008Z,98985.91
2023-04-12T21:11:57.788Z,99000.63
2023-04-12T21:14:24.756Z,98999.78
2023-04-12T21:16:52.432Z,99001.75
2023-04-12T21:19:19.133Z,98999.25
2023-04-12T21:21:46.178Z,98995.38
2023-04-12T21:24:13.216Z,98976.75
2023-04-12T21:26:40.734Z,98984.00
2023-04-12T21:29:07.300Z,98984.00
2023-04-12T21:31:33.965Z,98977.34
2023-04-12T21:34:00.665Z,98966.78
2023-04-12T21:36:28.587Z,98957.06
2023-04-12T21:38:56.367Z,98954.00
2023-04-12T21:41:24.325Z,98967.34
2023-04-12T21:43:53.709Z,98963.72
2023-04-12T21:46:20.728Z,98961.78
2023-04-12T21:48:47.360Z,98961.75
2023-04-12T21:51:13.853Z,98960.91
2023-04-12T21:53:40.727Z,98963.16
2023-04-12T21:56:07.536Z,98966.44
2023-04-12T21:58:34.221Z,98962.81
2023-04-12T22:01:01.157Z,98954.81
2023-04-12T22:03:28.113Z,98956.75
2023-04-12T22:06:04.170Z,98959.25
2023-04-12T22:08:32.804Z,98958.41
2023-04-12T22:11:00.125Z,98955.88
2023-04-12T22:13:27.173Z,98950.59
2023-04-12T22:15:53.752Z,98947.53
2023-04-12T22:18:20.483Z,98956.91
2023-04-12T22:20:47.716Z,98949.28
2023-04-12T22:23:17.693Z,98939.66
2023-04-12T22:25:45.261Z,98943.00
2023-04-12T22:28:12.195Z,98941.38
2023-04-12T22:30:39.053Z,98933.59
2023-04-12T22:33:05.863Z,98930.28
2023-04-12T22:35:35.096Z,98916.94
2023-04-12T22:38:01.990Z,98919.63
2023-04-12T22:40:28.612Z,98929.31
2023-04-12T22:42:57.971Z,98923.19
2023-04-12T22:45:24.661Z,98917.75
2023-04-12T22:47:51.246Z,98916.09
2023-04-12T22:50:18.020Z,98906.94
2023-04-12T22:52:44.566Z,98910.00
2023-04-12T22:55:13.815Z,98910.22
2023-04-12T22:57:40.335Z,98905.53
2023-04-12T23:00:07.551Z,98901.66
2023-04-12T23:02:34.859Z,98890.81
2023-04-12T23:05:02.649Z,98883.38
2023-04-12T23:07:30.159Z,98886.72
2023-04-12T23:09:57.732Z,98883.34
2023-04-12T23:12:24.649Z,98868.88
2023-04-12T23:14:55.303Z,98887.16
2023-04-12T23:17:21.944Z,98868.97
2023-04-12T23:19:50.367Z,98876.31
2023-04-12T23:22:44.330Z,98855.66
2023-04-12T23:25:23.581Z,98857.78
2023-04-12T23:27:50.730Z,98852.72
2023-04-12T23:30:18.257Z,98848.84
2023-04-12T23:32:45.208Z,98849.97
2023-04-12T23:35:12.150Z,98846.56
2023-04-12T23:37:40.867Z,98844.38
2023-04-12T23:40:14.032Z,98842.44
2023-04-12T23:42:41.798Z,98834.47
2023-04-12T23:45:10.585Z,98825.94
2023-04-12T23:47:37.744Z,98829.50
2023-04-12T23:50:06.431Z,98818.75
2023-04-12T23:52:33.138Z,98818.47
2023-04-12T23:54:59.849Z,98817.63
2023-04-12T23:57:27.115Z,98827.34
2023-04-12T23:59:54.053Z,98821.78
